createdAt,value
2019-05-17T00:01:07.322Z,22.97
2019-05-17T00:03:42.275Z,22.45
2019-05-17T00:06:17.041Z,18.42
2019-05-17T00:08:51.673Z,20.00
2019-05-17T00:11:27.383Z,21.23
2019-05-17T00:14:02.258Z,21.15
2019-05-17T00:16:37.490Z,23.57
2019-05-17T00:19:12.274Z,23.87
2019-05-17T00:21:47.505Z,20.10
2019-05-17T00:24:21.950Z,19.57
2019-05-17T00:26:58.487Z,22.57
2019-05-17T00:29:32.325Z,22.42
2019-05-17T00:32:06.874Z,21.93
2019-05-17T00:42:21.674Z,22.53
2019-05-17T00:44:56.522Z,21.12
2019-05-17T00:47:30.947Z,22.27
2019-05-17T00:52:38.273Z,25.05
2019-05-17T00:55:12.940Z,25.10
2019-05-17T00:57:47.623Z,27.33
2019-05-17T01:00:22.275Z,23.52
2019-05-17T01:02:57.342Z,26.73
2019-05-17T01:05:31.945Z,26.90
2019-05-17T01:08:07.291Z,23.80
2019-05-17T01:10:42.106Z,29.10
2019-05-17T01:13:17.303Z,43.43
2019-05-17T01:15:51.949Z,44.60
2019-05-17T01:18:26.958Z,30.83
2019-05-17T01:21:01.776Z,31.00
2019-05-17T01:23:36.357Z,26.13
2019-05-17T01:26:11.279Z,31.85
2019-05-17T01:28:46.778Z,33.30
2019-05-17T01:31:21.304Z,27.23
2019-05-17T01:33:56.504Z,27.73
2019-05-17T01:36:31.272Z,29.50
2019-05-17T01:39:17.024Z,30.95
2019-05-17T01:41:42.316Z,32.83
2019-05-17T01:44:16.940Z,30.85
2019-05-17T01:46:51.322Z,35.58
2019-05-17T01:49:27.115Z,60.52
2019-05-17T01:52:01.836Z,32.73
2019-05-17T01:57:10.664Z,27.27
2019-05-17T01:59:46.667Z,29.87
2019-05-17T02:04:58.367Z,30.23
2019-05-17T02:07:32.889Z,29.17
2019-05-17T02:10:07.866Z,27.25
2019-05-17T02:12:42.123Z,27.65
2019-05-17T02:15:20.267Z,31.65
2019-05-17T02:17:54.697Z,23.97
2019-05-17T02:20:29.118Z,26.30
2019-05-17T02:23:03.694Z,26.33
2019-05-17T02:25:38.118Z,31.02
2019-05-17T02:28:12.770Z,32.60
2019-05-17T02:30:47.773Z,27.90
2019-05-17T02:33:23.643Z,30.20
2019-05-17T02:38:33.325Z,30.00
2019-05-17T02:41:08.276Z,26.23
2019-05-17T02:43:43.419Z,28.20
2019-05-17T02:46:17.957Z,25.97
2019-05-17T02:48:53.913Z,25.12
2019-05-17T02:51:28.326Z,27.73
2019-05-17T02:54:04.304Z,31.57
2019-05-17T02:56:38.919Z,27.10
2019-05-17T02:59:13.759Z,26.77
2019-05-17T03:04:23.663Z,29.20
2019-05-17T03:09:33.295Z,29.77
2019-05-17T03:14:39.100Z,30.93
2019-05-17T03:17:14.233Z,28.33
2019-05-17T03:19:48.711Z,26.20
2019-05-17T03:22:23.285Z,29.47
2019-05-17T03:24:57.723Z,26.30
2019-05-17T03:27:33.777Z,27.62
2019-05-17T03:30:08.881Z,26.60
2019-05-17T03:32:47.620Z,27.10
2019-05-17T03:35:25.875Z,29.17
2019-05-17T03:37:57.273Z,28.32
2019-05-17T03:41:00.968Z,29.07
2019-05-17T03:43:08.319Z,28.10
2019-05-17T03:45:42.777Z,28.03
2019-05-17T03:50:52.879Z,30.10
2019-05-17T03:53:26.282Z,29.95
2019-05-17T03:56:03.020Z,29.42
2019-05-17T03:58:36.936Z,29.52
2019-05-17T04:01:14.123Z,27.58
2019-05-17T04:03:47.253Z,29.85
2019-05-17T04:06:23.890Z,30.32
2019-05-17T04:08:57.923Z,31.10
2019-05-17T04:11:36.286Z,29.30
2019-05-17T04:14:08.305Z,28.47
2019-05-17T04:16:43.036Z,25.23
2019-05-17T04:19:17.693Z,30.27
2019-05-17T04:21:53.730Z,29.52
2019-05-17T04:27:03.688Z,35.40
2019-05-17T04:29:37.240Z,30.97
2019-05-17T04:32:12.925Z,33.08
2019-05-17T04:34:47.675Z,30.53
2019-05-17T04:37:22.771Z,33.42
2019-05-17T04:39:58.341Z,31.20
2019-05-17T04:42:33.221Z,34.25
2019-05-17T04:45:08.313Z,32.27
2019-05-17T04:47:44.130Z,29.10
2019-05-17T04:50:22.775Z,32.50
2019-05-17T04:52:56.267Z,27.83
2019-05-17T04:55:33.786Z,36.03
2019-05-17T04:58:07.936Z,32.98
2019-05-17T05:00:43.029Z,33.18
2019-05-17T05:03:17.777Z,34.18
2019-05-17T05:08:26.725Z,31.63
2019-05-17T05:11:04.137Z,30.27
2019-05-17T05:16:17.728Z,32.30
2019-05-17T05:18:52.254Z,32.13
2019-05-17T05:21:26.711Z,29.87
2019-05-17T05:26:33.938Z,25.97
2019-05-17T05:29:08.274Z,27.30
2019-05-17T05:31:42.883Z,27.62
2019-05-17T05:34:17.391Z,26.95
2019-05-17T05:36:52.581Z,26.97
2019-05-17T05:39:27.274Z,22.50
2019-05-17T05:42:07.917Z,27.25
2019-05-17T05:44:37.945Z,28.57
2019-05-17T05:47:12.288Z,29.40
2019-05-17T05:49:46.931Z,26.10
2019-05-17T05:54:56.342Z,26.20
2019-05-17T05:57:32.196Z,27.58
2019-05-17T06:00:08.285Z,28.70
2019-05-17T06:02:42.909Z,28.10
2019-05-17T06:05:17.950Z,27.93
2019-05-17T06:10:27.298Z,27.73
2019-05-17T06:13:03.262Z,29.33
2019-05-17T06:15:38.266Z,27.67
2019-05-17T06:18:12.732Z,29.05
2019-05-17T06:23:23.203Z,25.53
2019-05-17T06:25:57.114Z,29.63
2019-05-17T06:28:32.023Z,28.47
2019-05-17T06:31:06.955Z,26.43
2019-05-17T06:33:42.282Z,25.62
2019-05-17T06:36:17.288Z,27.40
2019-05-17T06:38:52.777Z,24.90
2019-05-17T06:41:27.280Z,27.85
2019-05-17T06:44:02.908Z,24.80
2019-05-17T06:46:37.775Z,23.10
2019-05-17T06:49:12.560Z,19.03
2019-05-17T06:51:47.263Z,20.75
2019-05-17T06:54:21.818Z,24.80
2019-05-17T06:56:56.278Z,19.50
2019-05-17T06:59:30.933Z,15.33
2019-05-17T07:02:05.688Z,14.58
2019-05-17T07:07:27.280Z,12.63
2019-05-17T07:10:02.342Z,11.57
2019-05-17T07:12:51.094Z,10.82
2019-05-17T07:15:14.135Z,10.83
2019-05-17T07:17:50.487Z,10.53
2019-05-17T07:20:25.432Z,11.73
2019-05-17T07:23:01.278Z,13.10
2019-05-17T07:25:35.921Z,11.37
2019-05-17T07:30:45.275Z,11.73
2019-05-17T07:33:21.106Z,11.88
2019-05-17T07:35:55.749Z,11.95
2019-05-17T07:38:30.467Z,9.20
2019-05-17T07:41:05.278Z,9.47
2019-05-17T07:43:40.524Z,9.13
2019-05-17T07:48:49.734Z,8.37
2019-05-17T07:51:24.416Z,8.30
2019-05-17T07:53:59.706Z,8.23
2019-05-17T07:56:34.363Z,7.53
2019-05-17T07:59:09.582Z,7.60
2019-05-17T08:01:44.334Z,6.90
2019-05-17T08:04:20.443Z,7.87
2019-05-17T08:06:55.398Z,5.60
2019-05-17T08:09:30.283Z,5.90
2019-05-17T08:12:05.089Z,5.90
2019-05-17T08:14:40.173Z,6.50
2019-05-17T08:17:15.286Z,5.57
2019-05-17T08:19:50.008Z,4.05
2019-05-17T08:22:24.681Z,4.50
2019-05-17T08:25:00.042Z,5.13
2019-05-17T08:27:34.893Z,4.80
2019-05-17T08:30:10.585Z,4.83
2019-05-17T08:32:45.311Z,4.03
2019-05-17T08:35:20.098Z,4.20
2019-05-17T08:37:54.957Z,3.90
2019-05-17T08:40:30.725Z,3.83
2019-05-17T08:43:05.299Z,4.05
2019-05-17T08:45:40.909Z,4.10
2019-05-17T08:48:15.755Z,5.03
2019-05-17T08:50:50.341Z,5.10
2019-05-17T08:53:24.945Z,5.87
2019-05-17T08:56:01.016Z,4.90
2019-05-17T08:58:35.947Z,4.20
2019-05-17T09:01:11.706Z,15.28
2019-05-17T09:06:19.896Z,5.40
2019-05-17T09:08:54.689Z,5.33
2019-05-17T09:16:40.069Z,5.20
2019-05-17T09:19:14.290Z,4.43
2019-05-17T09:21:50.341Z,6.28
2019-05-17T09:24:25.354Z,5.67
2019-05-17T09:27:01.311Z,4.70
2019-05-17T09:29:36.211Z,4.53
2019-05-17T09:32:11.213Z,4.65
2019-05-17T09:34:46.131Z,5.70
2019-05-17T09:37:22.691Z,4.90
2019-05-17T09:45:06.259Z,6.50
2019-05-17T09:47:41.260Z,5.13
2019-05-17T09:50:16.951Z,4.87
2019-05-17T09:52:51.665Z,5.43
2019-05-17T09:55:26.282Z,4.87
2019-05-17T09:58:01.269Z,5.63
2019-05-17T10:00:36.286Z,5.40
2019-05-17T10:03:11.072Z,5.77
2019-05-17T10:05:45.691Z,5.50
2019-05-17T10:11:04.953Z,5.23
2019-05-17T10:13:29.949Z,5.27
2019-05-17T10:16:04.297Z,5.67
2019-05-17T10:18:40.126Z,4.93
2019-05-17T10:21:15.276Z,5.40
2019-05-17T10:23:50.261Z,4.97
2019-05-17T10:26:25.261Z,5.57
2019-05-17T10:29:00.123Z,5.23
2019-05-17T10:31:34.778Z,5.10
2019-05-17T10:36:44.327Z,4.70
2019-05-17T10:39:19.402Z,5.53
2019-05-17T10:41:54.290Z,6.28
2019-05-17T10:44:43.099Z,6.53
2019-05-17T10:47:10.098Z,6.07
2019-05-17T10:49:45.271Z,6.30
2019-05-17T10:52:20.364Z,6.27
2019-05-17T10:54:55.283Z,5.83
2019-05-17T10:57:30.370Z,6.37
2019-05-17T11:00:05.297Z,5.80
2019-05-17T11:05:13.767Z,6.72
2019-05-17T11:07:50.475Z,6.20
2019-05-17T11:10:24.711Z,6.60
2019-05-17T11:12:59.296Z,5.83
2019-05-17T11:15:33.947Z,5.90
2019-05-17T11:18:08.410Z,5.43
2019-05-17T11:20:43.270Z,5.73
2019-05-17T11:23:18.340Z,5.73
2019-05-17T11:25:52.946Z,6.53
2019-05-17T11:28:27.694Z,7.20
2019-05-17T11:31:02.249Z,44.93
2019-05-17T11:33:36.941Z,9.47
2019-05-17T11:36:11.311Z,12.60
2019-05-17T11:38:45.896Z,7.97
2019-05-17T11:41:21.768Z,14.33
2019-05-17T11:43:56.699Z,10.30
2019-05-17T11:49:06.377Z,7.83
2019-05-17T11:51:41.150Z,8.83
2019-05-17T11:54:15.741Z,8.77
2019-05-17T11:56:49.959Z,8.80
2019-05-17T11:59:24.708Z,9.30
2019-05-17T12:04:32.648Z,9.33
2019-05-17T12:07:07.612Z,9.95
2019-05-17T12:09:42.282Z,9.98
2019-05-17T12:12:16.893Z,10.60
2019-05-17T12:14:51.302Z,7.67
2019-05-17T12:17:26.129Z,7.53
2019-05-17T12:20:00.880Z,7.97
2019-05-17T12:25:09.152Z,10.17
2019-05-17T12:27:44.208Z,8.57
2019-05-17T12:30:19.289Z,9.63
2019-05-17T12:32:54.136Z,9.67
2019-05-17T12:35:28.865Z,9.80
2019-05-17T12:40:36.703Z,9.37
2019-05-17T12:48:17.447Z,6.70
2019-05-17T12:50:52.287Z,7.53
2019-05-17T12:53:26.961Z,7.25
2019-05-17T12:56:01.668Z,6.47
2019-05-17T13:01:09.730Z,7.43
2019-05-17T13:06:17.630Z,6.80
2019-05-17T13:08:52.274Z,6.80
2019-05-17T13:11:26.883Z,6.17
2019-05-17T13:14:01.683Z,6.35
2019-05-17T13:16:36.279Z,6.70
2019-05-17T13:19:11.251Z,6.53
2019-05-17T13:21:45.927Z,7.20
2019-05-17T13:24:20.679Z,6.40
2019-05-17T13:26:55.277Z,6.40
2019-05-17T13:29:29.945Z,6.87
2019-05-17T13:32:04.642Z,7.17
2019-05-17T13:34:39.332Z,5.40
2019-05-17T13:37:15.271Z,6.10
2019-05-17T13:39:50.272Z,5.70
2019-05-17T13:42:24.950Z,6.47
2019-05-17T13:44:59.906Z,5.63
2019-05-17T13:47:34.287Z,5.30
2019-05-17T13:50:09.726Z,5.93
2019-05-17T13:52:43.949Z,6.10
2019-05-17T13:55:18.312Z,9.27
2019-05-17T13:57:52.779Z,5.20
2019-05-17T14:00:27.279Z,5.70
2019-05-17T14:03:01.778Z,5.33
2019-05-17T14:05:36.287Z,5.00
2019-05-17T14:08:10.873Z,5.00
2019-05-17T14:10:45.284Z,5.43
2019-05-17T14:13:19.788Z,5.87
2019-05-17T14:21:00.948Z,6.30
2019-05-17T14:23:35.286Z,6.47
2019-05-17T14:26:09.706Z,5.87
2019-05-17T14:31:17.128Z,5.87
2019-05-17T14:33:51.734Z,7.77
2019-05-17T14:38:58.960Z,8.50
2019-05-17T14:41:33.404Z,8.03
2019-05-17T14:44:07.950Z,7.30
2019-05-17T14:46:42.274Z,6.43
2019-05-17T14:49:16.778Z,5.73
2019-05-17T14:54:25.249Z,5.73
2019-05-17T14:56:59.706Z,6.10
2019-05-17T14:59:34.101Z,4.93
2019-05-17T15:02:08.693Z,4.97
2019-05-17T15:04:43.151Z,4.63
2019-05-17T15:07:17.890Z,4.43
2019-05-17T15:09:52.304Z,6.17
2019-05-17T15:12:28.727Z,4.80
2019-05-17T15:15:02.902Z,4.67
2019-05-17T15:17:37.534Z,6.13
2019-05-17T15:20:12.260Z,5.17
2019-05-17T15:22:46.712Z,6.90
2019-05-17T15:25:21.283Z,6.10
2019-05-17T15:27:55.749Z,5.05
2019-05-17T15:33:04.218Z,6.23
2019-05-17T15:35:39.733Z,5.17
2019-05-17T15:38:14.283Z,4.93
2019-05-17T15:40:48.759Z,5.63
2019-05-17T15:43:23.280Z,5.20
2019-05-17T15:45:57.736Z,5.63
2019-05-17T15:48:32.284Z,6.13
2019-05-17T15:51:06.940Z,5.87
2019-05-17T15:53:41.282Z,5.80
2019-05-17T15:56:15.761Z,5.83
2019-05-17T16:01:23.313Z,5.80
2019-05-17T16:03:57.951Z,5.17
2019-05-17T16:06:32.643Z,9.50
2019-05-17T16:09:08.322Z,5.90
2019-05-17T16:11:42.817Z,7.17
2019-05-17T16:14:17.243Z,6.25
2019-05-17T16:16:52.731Z,6.20
2019-05-17T16:24:32.956Z,6.50
2019-05-17T16:27:07.359Z,6.77
2019-05-17T16:29:42.290Z,6.43
2019-05-17T16:32:16.950Z,5.90
2019-05-17T16:34:51.417Z,6.40
2019-05-17T16:37:26.246Z,5.40
2019-05-17T16:40:00.958Z,38.97
2019-05-17T16:42:37.355Z,38.23
2019-05-17T16:45:13.949Z,13.85
2019-05-17T16:47:49.286Z,6.23
2019-05-17T16:50:24.136Z,5.90
2019-05-17T16:53:05.869Z,5.83
2019-05-17T16:55:35.708Z,6.37
2019-05-17T16:58:10.289Z,5.80
2019-05-17T17:00:46.292Z,8.63
2019-05-17T17:03:21.136Z,6.80
2019-05-17T17:05:56.749Z,11.07
2019-05-17T17:08:31.288Z,13.98
2019-05-17T17:11:05.957Z,6.93
2019-05-17T17:13:40.332Z,6.87
2019-05-17T17:16:14.944Z,6.37
2019-05-17T17:18:49.355Z,7.20
2019-05-17T17:21:24.003Z,7.50
2019-05-17T17:23:58.779Z,8.40
2019-05-17T17:29:06.595Z,8.10
2019-05-17T17:31:41.286Z,8.48
2019-05-17T17:34:15.945Z,7.10
2019-05-17T17:36:50.292Z,8.30
2019-05-17T17:41:44.935Z,9.03
2019-05-17T17:44:19.652Z,8.87
2019-05-17T17:46:54.256Z,8.67
2019-05-17T17:49:29.150Z,8.17
2019-05-17T17:52:03.734Z,8.60
2019-05-17T17:59:44.285Z,22.45
2019-05-17T18:02:18.905Z,26.67
2019-05-17T18:04:53.407Z,11.43
2019-05-17T18:07:27.960Z,9.37
2019-05-17T18:10:02.354Z,8.40
2019-05-17T18:12:36.961Z,7.43
2019-05-17T18:17:45.961Z,7.47
2019-05-17T18:20:20.305Z,9.90
2019-05-17T18:22:54.907Z,7.63
2019-05-17T18:28:02.282Z,7.57
2019-05-17T18:30:36.908Z,7.50
2019-05-17T18:33:12.700Z,10.37
2019-05-17T18:35:47.295Z,7.60
2019-05-17T18:38:24.785Z,25.08
2019-05-17T18:43:32.475Z,26.77
2019-05-17T18:46:07.267Z,9.07
2019-05-17T18:48:41.735Z,8.67
2019-05-17T18:53:46.738Z,9.55
2019-05-17T18:58:54.283Z,8.08
2019-05-17T19:01:28.955Z,7.47
2019-05-17T19:04:03.675Z,6.33
2019-05-17T19:06:38.188Z,5.83
2019-05-17T19:09:12.780Z,6.93
2019-05-17T19:11:47.291Z,6.20
2019-05-17T19:14:21.741Z,5.50
2019-05-17T19:16:56.149Z,5.97
2019-05-17T19:19:30.690Z,5.80
2019-05-17T19:22:05.273Z,6.17
2019-05-17T19:24:39.775Z,9.17
2019-05-17T19:29:47.266Z,7.67
2019-05-17T19:32:21.742Z,7.90
2019-05-17T19:34:56.282Z,6.90
2019-05-17T19:37:30.968Z,6.10
2019-05-17T19:40:06.659Z,6.77
2019-05-17T19:42:40.956Z,6.90
2019-05-17T19:45:16.764Z,6.13
2019-05-17T19:47:51.298Z,6.07
2019-05-17T19:50:25.797Z,6.90
2019-05-17T19:58:08.294Z,6.93
2019-05-17T20:00:42.886Z,6.53
2019-05-17T20:03:17.279Z,6.80
2019-05-17T20:05:51.762Z,5.57
2019-05-17T20:14:14.886Z,4.78
2019-05-17T20:16:49.279Z,6.17
2019-05-17T20:19:23.717Z,4.97
2019-05-17T20:21:58.294Z,5.30
2019-05-17T20:24:32.811Z,5.10
2019-05-17T20:27:07.339Z,4.63
2019-05-17T20:29:41.945Z,5.23
2019-05-17T20:32:16.345Z,5.47
2019-05-17T20:34:51.017Z,5.10
2019-05-17T20:37:25.683Z,4.93
2019-05-17T20:40:00.157Z,4.97
2019-05-17T20:42:34.693Z,6.25
2019-05-17T20:45:10.788Z,5.00
2019-05-17T20:50:18.337Z,6.23
2019-05-17T20:52:53.135Z,6.43
2019-05-17T20:55:27.798Z,5.10
2019-05-17T21:03:07.957Z,5.50
2019-05-17T21:05:42.287Z,5.90
2019-05-17T21:08:16.747Z,5.87
2019-05-17T21:13:24.748Z,5.80
2019-05-17T21:15:59.249Z,5.75
2019-05-17T21:18:33.954Z,5.30
2019-05-17T21:21:08.698Z,5.60
2019-05-17T21:23:43.252Z,6.33
2019-05-17T21:26:17.722Z,6.77
2019-05-17T21:28:52.281Z,5.60
2019-05-17T21:31:26.736Z,5.90
2019-05-17T21:34:01.415Z,6.17
2019-05-17T21:37:34.893Z,5.85
2019-05-17T21:40:10.319Z,7.03
2019-05-17T21:42:45.125Z,7.53
2019-05-17T21:45:19.775Z,6.13
2019-05-17T21:47:54.292Z,5.90
2019-05-17T21:50:29.069Z,7.30
2019-05-17T21:53:03.669Z,7.80
2019-05-17T21:55:38.299Z,5.63
2019-05-17T21:58:12.761Z,6.37
2019-05-17T22:01:19.800Z,5.60
2019-05-17T22:03:54.286Z,5.47
2019-05-17T22:06:28.748Z,6.13
2019-05-17T22:11:40.321Z,6.43
2019-05-17T22:14:14.949Z,6.00
2019-05-17T22:16:49.576Z,5.30
2019-05-17T22:19:24.114Z,6.13
2019-05-17T22:21:58.797Z,7.10
2019-05-17T22:24:33.104Z,5.70
2019-05-17T22:27:07.720Z,6.30
2019-05-17T22:29:42.138Z,5.30
2019-05-17T22:32:16.727Z,5.40
2019-05-17T22:34:51.087Z,5.70
2019-05-17T22:37:25.636Z,8.43
2019-05-17T22:40:00.289Z,5.50
2019-05-17T22:42:34.709Z,6.33
2019-05-17T22:45:09.365Z,7.30
2019-05-17T22:47:43.909Z,7.87
2019-05-17T22:50:18.289Z,7.90
2019-05-17T22:52:52.739Z,8.27
2019-05-17T22:58:00.289Z,7.50
2019-05-17T23:00:35.905Z,8.00
2019-05-17T23:03:10.278Z,9.73
2019-05-17T23:05:44.887Z,8.37
2019-05-17T23:10:52.648Z,8.43
2019-05-17T23:13:26.946Z,7.47
2019-05-17T23:16:03.129Z,7.33
2019-05-17T23:18:37.705Z,6.43
2019-05-17T23:23:45.634Z,6.77
2019-05-17T23:28:52.951Z,9.53
2019-05-17T23:34:00.326Z,6.17
2019-05-17T23:36:34.750Z,7.80
2019-05-17T23:39:09.955Z,6.13
2019-05-17T23:41:44.314Z,5.77
2019-05-17T23:44:18.738Z,5.87
2019-05-17T23:47:06.250Z,5.63
2019-05-17T23:49:29.284Z,5.93
2019-05-17T23:52:03.819Z,4.70
2019-05-17T23:54:38.285Z,5.40
2019-05-17T23:57:12.741Z,5.55
2019-05-17T23:59:47.132Z,4.53
